createdAt,value
2023-03-10T00:02:28.652Z,0.4
2023-03-10T00:07:35.237Z,0.4
2023-03-10T00:12:41.862Z,0.4
2023-03-10T00:17:48.373Z,0.4
2023-03-10T00:28:01.518Z,0.4
2023-03-10T00:33:08.091Z,0.4
2023-03-10T00:38:14.668Z,0.4
2023-03-10T00:43:21.232Z,0.4
2023-03-10T00:48:27.072Z,0.4
2023-03-10T00:53:33.662Z,0.4
2023-03-10T00:58:40.233Z,0.4
2023-03-10T01:03:46.871Z,0.4
2023-03-10T01:08:53.378Z,0.5
2023-03-10T01:13:59.978Z,0.5
2023-03-10T01:19:06.700Z,0.6
2023-03-10T01:24:13.223Z,0.6
2023-03-10T01:29:19.685Z,0.6
2023-03-10T01:34:26.259Z,0.6
2023-03-10T01:39:32.827Z,0.6
2023-03-10T01:44:39.465Z,0.6
2023-03-10T01:49:45.962Z,0.6
2023-03-10T01:54:51.874Z,0.6
2023-03-10T01:59:58.385Z,0.6
2023-03-10T02:05:04.948Z,0.6
2023-03-10T02:10:11.513Z,0.6
2023-03-10T02:15:18.098Z,0.6
2023-03-10T02:20:24.672Z,0.6
2023-03-10T02:25:31.233Z,0.6
2023-03-10T02:30:37.815Z,0.6
2023-03-10T02:35:44.394Z,0.6
2023-03-10T02:40:50.999Z,0.6
2023-03-10T02:45:57.547Z,0.6
2023-03-10T02:51:04.122Z,0.6
2023-03-10T02:56:10.686Z,0.6
2023-03-10T03:01:16.544Z,0.6
2023-03-10T03:06:23.106Z,0.6
2023-03-10T03:11:29.683Z,0.6
2023-03-10T03:16:36.238Z,0.6
2023-03-10T03:21:42.831Z,0.7
2023-03-10T03:26:49.405Z,0.8
2023-03-10T03:31:55.964Z,0.8
2023-03-10T03:37:02.544Z,0.8
2023-03-10T03:42:09.101Z,0.8
2023-03-10T03:47:15.690Z,0.8
2023-03-10T03:52:22.255Z,0.9
2023-03-10T03:57:28.825Z,0.9
2023-03-10T04:02:35.413Z,0.9
2023-03-10T04:07:41.250Z,1
2023-03-10T04:12:47.855Z,1.1
2023-03-10T04:17:54.385Z,1.1
2023-03-10T04:23:00.964Z,1.2
2023-03-10T04:28:07.536Z,1.3
2023-03-10T04:33:14.102Z,1.3
2023-03-10T04:38:20.694Z,1.4
2023-03-10T04:43:27.287Z,1.4
2023-03-10T04:48:33.878Z,1.4
2023-03-10T04:53:40.441Z,1.5
2023-03-10T04:58:47.020Z,1.6
2023-03-10T05:03:53.597Z,1.6
2023-03-10T05:09:00.158Z,1.8
2023-03-10T05:14:06.015Z,1.7
2023-03-10T05:19:12.590Z,1.8
2023-03-10T05:24:19.159Z,1.8
2023-03-10T05:29:25.852Z,1.9
2023-03-10T05:34:32.333Z,2.1
2023-03-10T05:39:38.858Z,2
2023-03-10T05:44:45.434Z,2
2023-03-10T05:49:52.073Z,2
2023-03-10T05:54:58.626Z,2.2
2023-03-10T06:00:05.187Z,2.4
2023-03-10T06:05:11.736Z,2.8
2023-03-10T06:10:18.365Z,3
2023-03-10T06:15:24.886Z,3.5
2023-03-10T06:20:30.728Z,4.5
2023-03-10T06:25:37.285Z,4.9
2023-03-10T06:30:43.863Z,5.1
2023-03-10T06:35:50.438Z,5.1
2023-03-10T06:40:57.008Z,5.2
2023-03-10T06:46:03.582Z,5.5
2023-03-10T06:51:10.184Z,5.6
2023-03-10T06:56:16.742Z,5.9
2023-03-10T07:01:23.318Z,6
2023-03-10T07:06:29.961Z,6.1
2023-03-10T07:11:36.552Z,6.3
2023-03-10T07:16:43.016Z,6.3
2023-03-10T07:21:49.728Z,6.4
2023-03-10T07:26:55.417Z,6.6
2023-03-10T07:32:02.002Z,6.7
2023-03-10T07:37:08.623Z,7
2023-03-10T07:42:15.130Z,7
2023-03-10T07:47:21.699Z,7.1
2023-03-10T07:52:28.278Z,7.2
2023-03-10T07:57:34.854Z,7.7
2023-03-10T08:02:41.439Z,8.2
2023-03-10T08:07:48.081Z,8.4
2023-03-10T08:12:55.622Z,9.3
2023-03-10T08:18:01.188Z,8.9
2023-03-10T08:23:07.781Z,8.9
2023-03-10T11:32:18.235Z,11.7
2023-03-10T11:37:25.001Z,11.2
2023-03-10T11:42:32.177Z,11.3
2023-03-10T11:47:39.368Z,11
2023-03-10T11:52:46.591Z,11.3
2023-03-10T11:57:53.745Z,11.1
2023-03-10T12:03:00.924Z,10.9
2023-03-10T12:08:08.116Z,11.5
2023-03-10T12:13:15.306Z,11.3
2023-03-10T12:18:22.477Z,10.9
2023-03-10T12:23:29.672Z,11
2023-03-10T12:28:36.866Z,11.2
2023-03-10T12:33:44.067Z,11.1
2023-03-10T12:38:51.279Z,11
2023-03-10T12:43:57.964Z,10.3
2023-03-10T12:49:05.158Z,9.8
2023-03-10T12:54:12.383Z,9.6
2023-03-10T12:59:19.528Z,9.4
2023-03-10T13:04:26.788Z,9.3
2023-03-10T13:09:33.927Z,9.8
2023-03-10T13:14:40.129Z,9.6
2023-03-10T13:19:46.010Z,8.9
2023-03-10T13:24:52.533Z,8.6
2023-03-10T13:29:59.132Z,8.7
2023-03-10T13:35:05.720Z,8.7
2023-03-10T13:40:12.235Z,8.6
2023-03-10T13:45:18.830Z,8.7
2023-03-10T13:50:25.396Z,8.3
2023-03-10T13:55:31.995Z,8.3
2023-03-10T14:00:38.514Z,8.8
2023-03-10T14:05:45.105Z,8.9
2023-03-10T14:10:51.654Z,8.4
2023-03-10T14:15:58.219Z,8.2
2023-03-10T14:21:04.803Z,7.7
2023-03-10T14:26:10.628Z,7.5
2023-03-10T14:31:17.206Z,7.5
2023-03-10T14:36:23.778Z,7.3
2023-03-10T14:41:30.340Z,7.1
2023-03-10T14:46:36.952Z,7
2023-03-10T14:51:43.493Z,6.9
2023-03-10T14:56:50.101Z,6.9
2023-03-10T15:01:56.636Z,6.9
2023-03-10T15:07:03.283Z,6.9
2023-03-10T15:12:09.799Z,6.9
2023-03-10T16:49:14.635Z,5.7
2023-03-10T16:54:20.550Z,5.5
2023-03-10T16:59:26.364Z,5.4
2023-03-10T17:04:32.942Z,5.3
2023-03-10T17:09:39.498Z,5.2
2023-03-10T17:14:46.269Z,5.1
2023-03-10T17:19:52.703Z,5
2023-03-10T17:24:59.243Z,4.9
2023-03-10T17:30:05.929Z,4.7
2023-03-10T17:35:12.481Z,4.7
2023-03-10T17:40:19.147Z,4.5
2023-03-10T17:45:25.527Z,4.5
2023-03-10T17:50:31.522Z,4.4
2023-03-10T17:55:37.264Z,4.2
2023-03-10T18:00:43.807Z,3.9
2023-03-10T18:05:50.379Z,3.9
2023-03-10T18:10:56.954Z,3.8
2023-03-10T18:16:03.554Z,3.7
2023-03-10T18:21:10.118Z,3.7
2023-03-10T18:26:16.674Z,3.5
2023-03-10T18:31:23.263Z,3.5
2023-03-10T18:36:29.820Z,3.4
2023-03-10T18:41:36.410Z,3.3
2023-03-10T18:46:42.283Z,3.3
2023-03-10T18:51:48.136Z,3.2
2023-03-10T18:56:54.701Z,3.1
2023-03-10T19:02:01.284Z,3.1
2023-03-10T19:07:07.862Z,3
2023-03-10T19:12:14.422Z,3
2023-03-10T19:17:21.010Z,2.9
2023-03-10T19:22:27.572Z,2.9
2023-03-10T19:27:34.132Z,2.9
2023-03-10T19:32:40.708Z,2.9
2023-03-10T19:37:47.287Z,2.9
2023-03-10T19:42:53.855Z,2.8
2023-03-10T19:48:00.433Z,2.7
2023-03-10T19:53:07.033Z,2.7
2023-03-10T19:58:12.842Z,2.7
2023-03-10T20:03:19.422Z,2.7
2023-03-10T20:08:25.984Z,2.7
2023-03-10T20:13:32.569Z,2.7
2023-03-10T20:18:39.142Z,2.7
2023-03-10T20:23:45.760Z,2.7
2023-03-10T20:28:52.273Z,2.7
2023-03-10T20:33:58.870Z,2.6
2023-03-10T20:39:05.424Z,2.5
2023-03-10T20:44:12.000Z,2.4
2023-03-10T20:49:18.573Z,2.4
2023-03-10T20:54:25.135Z,2.4
2023-03-10T20:59:31.712Z,2.4
2023-03-10T21:04:37.561Z,2.5
2023-03-10T21:09:44.128Z,2.5
2023-03-10T21:14:50.708Z,2.5
2023-03-10T21:19:57.275Z,2.5
2023-03-10T21:25:03.861Z,2.5
2023-03-10T21:30:10.431Z,2.5
2023-03-10T21:35:17.001Z,2.5
2023-03-10T21:40:23.619Z,2.6
2023-03-10T21:45:30.147Z,2.6
2023-03-10T21:50:36.722Z,2.5
2023-03-10T21:55:43.283Z,2.5
2023-03-10T22:00:49.916Z,2.6
2023-03-10T22:05:56.428Z,2.6
2023-03-10T22:11:02.277Z,2.5
2023-03-10T22:16:08.859Z,2.6
2023-03-10T22:21:15.417Z,2.6
2023-03-10T22:26:22.002Z,2.6
2023-03-10T22:31:28.551Z,2.5
2023-03-10T22:36:35.146Z,2.6
2023-03-10T22:41:41.704Z,2.6
2023-03-10T22:46:48.289Z,2.5
2023-03-10T22:51:54.850Z,2.4
2023-03-10T22:57:01.432Z,2.1
2023-03-10T23:02:08.004Z,1.7
2023-03-10T23:07:14.580Z,1.2
2023-03-10T23:12:21.205Z,0.7
2023-03-10T23:17:26.996Z,0.5
2023-03-10T23:22:33.565Z,0.3
2023-03-10T23:27:40.130Z,0.3
2023-03-10T23:32:45.756Z,0.2
2023-03-10T23:37:51.231Z,0.2
2023-03-10T23:42:57.547Z,0.2
2023-03-10T23:48:03.862Z,0.1
2023-03-10T23:53:10.202Z,0.1
2023-03-10T23:58:16.535Z,0.1
